createdAt,value
2022-09-06T00:01:00.282Z,20.91
2022-09-06T00:03:28.325Z,20.85
2022-09-06T00:05:55.739Z,20.75
2022-09-06T00:08:23.141Z,20.42
2022-09-06T00:11:00.936Z,20.42
2022-09-06T00:13:28.743Z,20.76
2022-09-06T00:15:56.955Z,20.45
2022-09-06T00:18:24.475Z,20.35
2022-09-06T00:20:51.852Z,20.32
2022-09-06T00:23:19.522Z,20.29
2022-09-06T00:25:46.867Z,20.24
2022-09-06T00:28:14.086Z,20.13
2022-09-06T00:30:41.686Z,20.02
2022-09-06T00:33:09.058Z,19.96
2022-09-06T00:35:36.567Z,20.06
2022-09-06T00:38:04.512Z,19.88
2022-09-06T00:40:33.014Z,19.83
2022-09-06T00:43:00.437Z,19.89
2022-09-06T00:45:28.105Z,20.02
2022-09-06T00:47:55.356Z,20.03
2022-09-06T00:50:22.747Z,19.99
2022-09-06T00:52:50.431Z,20.02
2022-09-06T00:55:17.878Z,20.17
2022-09-06T00:57:46.555Z,20.29
2022-09-06T01:00:16.224Z,20.01
2022-09-06T01:02:43.744Z,19.67
2022-09-06T01:05:11.318Z,19.86
2022-09-06T01:07:38.990Z,19.76
2022-09-06T01:10:25.430Z,19.89
2022-09-06T01:13:02.290Z,19.86
2022-09-06T01:15:44.592Z,19.80
2022-09-06T01:18:19.987Z,19.67
2022-09-06T01:20:47.222Z,19.84
2022-09-06T01:23:23.360Z,19.89
2022-09-06T01:26:09.613Z,19.88
2022-09-06T01:28:37.782Z,19.98
2022-09-06T01:31:05.405Z,19.80
2022-09-06T01:33:36.112Z,19.58
2022-09-06T01:36:05.214Z,19.59
2022-09-06T01:38:32.722Z,19.69
2022-09-06T01:41:00.013Z,19.76
2022-09-06T01:43:31.763Z,19.74
2022-09-06T01:46:05.381Z,19.60
2022-09-06T01:48:52.272Z,19.56
2022-09-06T01:51:25.717Z,19.39
2022-09-06T01:54:05.757Z,19.42
2022-09-06T01:56:48.454Z,19.62
2022-09-06T01:59:39.444Z,19.74
2022-09-06T02:02:14.485Z,19.40
2022-09-06T02:04:44.370Z,19.41
2022-09-06T02:07:14.214Z,19.33
2022-09-06T02:09:41.853Z,19.30
2022-09-06T02:12:10.084Z,19.35
2022-09-06T02:14:39.921Z,19.09
2022-09-06T02:17:08.524Z,19.33
2022-09-06T02:19:39.665Z,19.32
2022-09-06T02:22:08.219Z,19.23
2022-09-06T02:24:37.234Z,19.18
2022-09-06T02:27:04.656Z,19.16
2022-09-06T02:29:31.897Z,19.07
2022-09-06T02:32:01.868Z,19.08
2022-09-06T02:34:29.373Z,19.00
2022-09-06T02:36:56.769Z,19.05
2022-09-06T02:39:24.999Z,19.13
2022-09-06T02:41:52.251Z,18.97
2022-09-06T02:44:19.615Z,18.97
2022-09-06T02:46:47.331Z,19.02
2022-09-06T02:49:15.656Z,18.92
2022-09-06T02:51:43.028Z,19.07
2022-09-06T02:54:10.879Z,18.84
2022-09-06T02:56:38.294Z,18.81
2022-09-06T02:59:05.736Z,18.88
2022-09-06T03:01:33.613Z,18.61
2022-09-06T03:04:00.984Z,18.61
2022-09-06T03:06:28.364Z,18.63
2022-09-06T03:08:56.082Z,18.69
2022-09-06T03:11:23.459Z,18.60
2022-09-06T03:13:51.148Z,18.44
2022-09-06T03:16:19.275Z,18.21
2022-09-06T03:18:47.039Z,18.51
2022-09-06T03:21:14.721Z,18.80
2022-09-06T03:23:42.564Z,18.80
2022-09-06T03:26:09.886Z,18.33
2022-09-06T03:28:37.294Z,18.32
2022-09-06T03:31:05.022Z,18.25
2022-09-06T03:33:32.753Z,18.55
2022-09-06T03:36:00.927Z,18.46
2022-09-06T03:38:29.049Z,18.37
2022-09-06T03:40:56.665Z,18.64
2022-09-06T03:43:24.371Z,18.78
2022-09-06T03:45:53.172Z,18.86
2022-09-06T03:48:21.508Z,19.09
2022-09-06T03:50:50.054Z,18.89
2022-09-06T03:53:19.275Z,18.82
2022-09-06T03:55:47.439Z,18.71
2022-09-06T03:58:15.280Z,18.94
2022-09-06T04:00:42.860Z,18.75
2022-09-06T04:03:10.772Z,18.90
2022-09-06T04:05:38.196Z,18.76
2022-09-06T04:08:06.086Z,18.83
2022-09-06T04:10:33.979Z,18.72
2022-09-06T04:13:01.781Z,18.96
2022-09-06T04:15:29.059Z,19.06
2022-09-06T04:17:57.229Z,19.16
2022-09-06T04:20:24.434Z,18.98
2022-09-06T04:22:51.857Z,18.89
2022-09-06T04:25:19.352Z,18.79
2022-09-06T04:27:46.879Z,19.03
2022-09-06T04:30:14.219Z,19.09
2022-09-06T04:32:41.884Z,19.21
2022-09-06T04:35:09.255Z,19.10
2022-09-06T04:37:36.588Z,19.14
2022-09-06T04:40:04.304Z,19.17
2022-09-06T04:42:31.765Z,19.34
2022-09-06T04:44:59.155Z,19.33
2022-09-06T04:47:26.754Z,19.24
2022-09-06T04:49:54.096Z,19.15
2022-09-06T04:52:21.503Z,19.46
2022-09-06T04:54:49.021Z,19.56
2022-09-06T04:57:16.250Z,19.58
2022-09-06T04:59:43.653Z,19.62
2022-09-06T05:02:11.419Z,19.63
2022-09-06T05:04:38.726Z,19.49
2022-09-06T05:07:07.275Z,19.63
2022-09-06T05:09:34.931Z,19.52
2022-09-06T05:12:02.346Z,19.19
2022-09-06T05:14:29.758Z,19.59
2022-09-06T05:16:57.440Z,19.73
2022-09-06T05:19:24.802Z,19.65
2022-09-06T05:21:52.328Z,19.61
2022-09-06T05:24:20.127Z,19.80
2022-09-06T05:26:47.564Z,19.93
2022-09-06T05:29:14.954Z,20.14
2022-09-06T05:31:42.797Z,20.18
2022-09-06T05:34:10.596Z,20.31
2022-09-06T05:36:38.821Z,20.38
2022-09-06T05:39:06.332Z,20.16
2022-09-06T05:41:33.844Z,20.31
2022-09-06T05:44:01.210Z,20.26
2022-09-06T05:46:28.707Z,20.64
2022-09-06T05:48:58.034Z,20.87
2022-09-06T05:51:25.561Z,20.67
2022-09-06T05:53:53.224Z,20.75
2022-09-06T05:56:22.347Z,20.63
2022-09-06T05:58:49.629Z,20.71
2022-09-06T06:01:21.708Z,20.57
2022-09-06T06:03:59.562Z,20.79
2022-09-06T06:06:27.667Z,20.97
2022-09-06T06:08:55.628Z,20.89
2022-09-06T06:11:23.222Z,20.95
2022-09-06T06:13:50.909Z,20.84
2022-09-06T06:16:19.240Z,20.87
2022-09-06T06:18:51.753Z,21.08
2022-09-06T06:21:21.882Z,20.92
2022-09-06T06:23:53.548Z,21.48
2022-09-06T06:26:21.320Z,21.35
2022-09-06T06:28:49.102Z,21.25
2022-09-06T06:31:16.473Z,21.50
2022-09-06T06:33:44.446Z,21.53
2022-09-06T06:36:14.799Z,21.39
2022-09-06T06:38:42.682Z,21.50
2022-09-06T06:41:11.506Z,21.47
2022-09-06T06:43:38.746Z,21.95
2022-09-06T06:46:13.673Z,22.17
2022-09-06T06:48:41.821Z,22.15
2022-09-06T06:51:12.946Z,22.46
2022-09-06T06:53:40.329Z,22.24
2022-09-06T06:56:21.097Z,21.98
2022-09-06T06:58:49.024Z,22.36
2022-09-06T07:01:17.218Z,22.47
2022-09-06T07:03:44.664Z,22.55
2022-09-06T07:06:12.666Z,22.88
2022-09-06T07:08:40.890Z,22.55
2022-09-06T07:11:10.003Z,22.60
2022-09-06T07:13:37.514Z,22.84
2022-09-06T07:16:08.833Z,22.97
2022-09-06T07:18:37.741Z,23.25
2022-09-06T07:24:09.413Z,22.95
2022-09-06T07:26:38.544Z,23.41
2022-09-06T07:29:06.514Z,23.00
2022-09-06T07:34:22.303Z,23.39
2022-09-06T07:36:52.163Z,23.90
2022-09-06T07:39:19.520Z,24.19
2022-09-06T07:41:47.052Z,23.94
2022-09-06T07:44:14.313Z,23.76
2022-09-06T07:46:42.362Z,23.87
2022-09-06T07:49:10.126Z,23.69
2022-09-06T07:51:37.550Z,24.23
2022-09-06T07:56:52.556Z,24.01
2022-09-06T07:59:19.936Z,23.78
2022-09-06T08:01:48.263Z,23.62
2022-09-06T08:04:15.980Z,23.82
2022-09-06T08:09:33.082Z,24.23
2022-09-06T08:12:06.982Z,24.08
2022-09-06T08:14:34.961Z,23.72
2022-09-06T08:17:02.646Z,24.41
2022-09-06T08:19:29.893Z,24.69
2022-09-06T08:21:57.525Z,24.25
2022-09-06T08:24:24.908Z,24.95
2022-09-06T08:26:52.353Z,24.78
2022-09-06T08:29:22.975Z,24.82
2022-09-06T08:31:50.286Z,25.19
2022-09-06T08:34:17.729Z,24.97
2022-09-06T08:36:46.374Z,24.74
2022-09-06T08:39:13.794Z,24.89
2022-09-06T08:41:55.749Z,24.89
2022-09-06T08:47:12.429Z,25.24
2022-09-06T08:49:41.449Z,25.83
2022-09-06T08:52:26.360Z,25.76
2022-09-06T08:54:55.708Z,25.93
2022-09-06T08:57:22.919Z,25.64
2022-09-06T08:59:50.131Z,26.22
2022-09-06T09:02:21.391Z,25.65
2022-09-06T09:04:51.108Z,26.01
2022-09-06T09:07:28.123Z,26.32
2022-09-06T09:09:55.605Z,26.53
2022-09-06T09:12:23.884Z,26.62
2022-09-06T09:14:52.638Z,26.48
2022-09-06T09:17:23.017Z,26.49
2022-09-06T09:19:50.547Z,26.76
2022-09-06T09:22:18.498Z,26.99
2022-09-06T09:24:47.619Z,26.45
2022-09-06T09:27:17.016Z,26.88
2022-09-06T09:32:45.176Z,26.86
2022-09-06T09:35:31.998Z,27.31
2022-09-06T09:38:07.742Z,27.41
2022-09-06T09:40:50.614Z,27.45
2022-09-06T09:43:18.364Z,27.26
2022-09-06T09:45:45.978Z,27.50
2022-09-06T09:48:29.700Z,27.57
2022-09-06T09:50:57.362Z,27.56
2022-09-06T09:53:24.925Z,28.05
2022-09-06T09:55:56.285Z,27.72
2022-09-06T09:58:33.980Z,28.45
2022-09-06T10:01:11.392Z,27.90
2022-09-06T10:09:21.924Z,28.00
2022-09-06T10:11:54.363Z,27.97
2022-09-06T10:14:24.916Z,28.35
2022-09-06T10:16:52.431Z,28.11
2022-09-06T10:19:38.191Z,27.91
2022-09-06T10:22:12.628Z,27.90
2022-09-06T10:24:40.183Z,28.46
2022-09-06T10:27:12.730Z,28.69
2022-09-06T10:29:43.108Z,29.09
2022-09-06T10:32:13.852Z,29.06
2022-09-06T10:35:07.837Z,28.94
2022-09-06T10:37:44.587Z,29.29
2022-09-06T10:40:12.950Z,29.05
2022-09-06T10:42:43.019Z,29.41
2022-09-06T10:45:19.426Z,29.30
2022-09-06T10:47:53.386Z,29.14
2022-09-06T10:50:20.733Z,29.68
2022-09-06T10:52:48.701Z,29.97
2022-09-06T10:55:17.208Z,30.03
2022-09-06T11:00:37.212Z,29.65
2022-09-06T11:05:53.261Z,30.63
2022-09-06T11:11:17.643Z,30.32
2022-09-06T11:13:45.021Z,30.55
2022-09-06T11:16:15.828Z,31.24
2022-09-06T11:18:46.633Z,31.33
2022-09-06T11:21:17.528Z,31.28
2022-09-06T11:23:50.663Z,31.79
2022-09-06T11:26:29.541Z,32.03
2022-09-06T11:28:57.462Z,31.55
2022-09-06T11:34:26.565Z,31.13
2022-09-06T11:37:01.446Z,31.71
2022-09-06T11:42:36.618Z,31.09
2022-09-06T11:45:06.849Z,31.05
2022-09-06T11:47:35.452Z,30.92
2022-09-06T11:50:21.191Z,30.74
2022-09-06T11:52:55.233Z,30.77
2022-09-06T11:55:25.084Z,31.24
2022-09-06T11:57:54.047Z,31.22
2022-09-06T12:00:23.954Z,30.61
2022-09-06T12:02:52.190Z,30.43
2022-09-06T12:05:25.686Z,30.65
2022-09-06T12:08:13.168Z,30.63
2022-09-06T12:10:40.572Z,31.04
2022-09-06T12:13:29.022Z,31.20
2022-09-06T12:15:57.046Z,31.41
2022-09-06T12:18:43.745Z,31.43
2022-09-06T12:21:11.594Z,31.52
2022-09-06T12:23:42.648Z,31.26
2022-09-06T12:26:10.915Z,31.60
2022-09-06T12:28:49.857Z,31.25
2022-09-06T12:31:44.056Z,31.73
2022-09-06T12:34:13.783Z,32.14
2022-09-06T12:36:48.534Z,31.81
2022-09-06T12:39:16.300Z,32.03
2022-09-06T12:41:44.808Z,32.31
2022-09-06T12:44:12.194Z,32.55
2022-09-06T12:46:43.944Z,31.61
2022-09-06T12:49:12.213Z,31.23
2022-09-06T12:51:40.911Z,31.53
2022-09-06T12:54:22.080Z,31.56
2022-09-06T12:56:49.760Z,31.02
2022-09-06T12:59:17.190Z,31.79
2022-09-06T13:01:50.147Z,32.01
2022-09-06T13:04:26.539Z,31.75
2022-09-06T13:06:54.050Z,31.14
2022-09-06T13:09:21.705Z,31.47
2022-09-06T13:11:51.111Z,31.50
2022-09-06T13:14:20.041Z,30.99
2022-09-06T13:16:48.591Z,31.03
2022-09-06T13:19:15.873Z,30.67
2022-09-06T13:21:43.980Z,31.20
2022-09-06T13:24:22.138Z,31.14
2022-09-06T13:26:49.811Z,31.01
2022-09-06T13:29:17.409Z,30.70
2022-09-06T13:31:48.182Z,30.34
2022-09-06T13:34:29.693Z,30.55
2022-09-06T13:37:08.100Z,30.20
2022-09-06T13:39:40.211Z,30.58
2022-09-06T13:42:10.052Z,31.00
2022-09-06T13:44:41.749Z,30.82
2022-09-06T13:47:10.670Z,30.34
2022-09-06T13:49:38.323Z,30.18
2022-09-06T13:52:05.712Z,30.29
2022-09-06T13:54:33.302Z,30.82
2022-09-06T13:57:01.767Z,30.51
2022-09-06T13:59:30.342Z,30.43
2022-09-06T14:02:02.080Z,30.86
2022-09-06T14:04:29.773Z,30.76
2022-09-06T14:06:57.528Z,30.29
2022-09-06T14:09:24.821Z,30.05
2022-09-06T14:11:52.626Z,30.05
2022-09-06T14:14:20.667Z,30.28
2022-09-06T14:16:48.211Z,29.90
2022-09-06T14:19:15.927Z,30.30
2022-09-06T14:21:43.423Z,30.25
2022-09-06T14:24:10.770Z,30.18
2022-09-06T14:26:38.820Z,29.68
2022-09-06T14:29:06.362Z,29.74
2022-09-06T14:31:33.956Z,29.89
2022-09-06T14:34:01.828Z,29.82
2022-09-06T14:36:30.284Z,29.70
2022-09-06T14:38:58.343Z,29.89
2022-09-06T14:41:26.561Z,30.03
2022-09-06T14:43:55.053Z,29.96
2022-09-06T14:46:23.743Z,29.85
2022-09-06T14:49:02.161Z,29.63
2022-09-06T14:51:30.629Z,29.82
2022-09-06T14:53:59.684Z,29.80
2022-09-06T14:56:27.195Z,30.08
2022-09-06T14:58:57.625Z,30.19
2022-09-06T15:01:38.009Z,29.63
2022-09-06T15:04:06.451Z,29.85
2022-09-06T15:06:34.887Z,29.63
2022-09-06T15:09:02.591Z,29.63
2022-09-06T15:11:31.411Z,28.83
2022-09-06T15:13:59.191Z,28.68
2022-09-06T15:16:26.977Z,28.60
2022-09-06T15:18:55.121Z,27.92
2022-09-06T15:21:23.407Z,26.94
2022-09-06T15:23:51.905Z,26.66
2022-09-06T15:26:19.526Z,26.18
2022-09-06T15:28:47.692Z,25.83
2022-09-06T15:31:15.710Z,25.77
2022-09-06T15:33:43.234Z,25.88
2022-09-06T15:36:12.531Z,25.60
2022-09-06T15:38:41.733Z,25.43
2022-09-06T15:41:10.259Z,25.40
2022-09-06T15:43:41.250Z,25.17
2022-09-06T15:46:12.825Z,25.27
2022-09-06T15:48:43.079Z,25.31
2022-09-06T15:51:11.098Z,25.15
2022-09-06T15:53:40.237Z,25.11
2022-09-06T15:56:08.677Z,25.01
2022-09-06T15:58:36.138Z,25.01
2022-09-06T16:01:03.926Z,24.99
2022-09-06T16:03:32.381Z,24.69
2022-09-06T16:08:52.327Z,24.72
2022-09-06T16:11:20.314Z,24.94
2022-09-06T16:13:47.768Z,24.75
2022-09-06T16:16:15.855Z,24.92
2022-09-06T16:18:44.330Z,25.01
2022-09-06T16:21:24.910Z,24.95
2022-09-06T16:23:53.672Z,24.88
2022-09-06T16:26:21.935Z,24.77
2022-09-06T16:28:50.061Z,24.31
2022-09-06T16:31:18.039Z,24.50
2022-09-06T16:33:45.892Z,24.69
2022-09-06T16:36:14.113Z,24.45
2022-09-06T16:38:41.949Z,24.18
2022-09-06T16:41:10.949Z,24.45
2022-09-06T16:43:39.735Z,24.38
2022-09-06T16:46:07.876Z,24.31
2022-09-06T16:48:35.387Z,23.73
2022-09-06T16:51:13.065Z,23.69
2022-09-06T16:53:41.657Z,23.55
2022-09-06T16:56:15.115Z,24.03
2022-09-06T16:58:43.444Z,24.19
2022-09-06T17:01:20.160Z,24.12
2022-09-06T17:03:50.893Z,24.10
2022-09-06T17:06:18.463Z,23.93
2022-09-06T17:08:45.784Z,23.89
2022-09-06T17:11:17.837Z,23.75
2022-09-06T17:13:46.392Z,23.87
2022-09-06T17:16:32.877Z,23.96
2022-09-06T17:19:02.333Z,24.09
2022-09-06T17:21:30.951Z,24.00
2022-09-06T17:24:05.500Z,23.87
2022-09-06T17:26:34.803Z,23.84
2022-09-06T17:29:02.214Z,24.04
2022-09-06T17:31:30.539Z,23.97
2022-09-06T17:34:01.877Z,23.91
2022-09-06T17:36:33.232Z,23.87
2022-09-06T17:39:05.570Z,23.83
2022-09-06T17:41:33.934Z,23.71
2022-09-06T17:44:01.662Z,23.62
2022-09-06T17:46:29.330Z,23.73
2022-09-06T17:48:56.825Z,23.50
2022-09-06T17:51:25.383Z,23.60
2022-09-06T17:53:55.374Z,23.32
2022-09-06T17:56:23.192Z,23.12
2022-09-06T17:58:58.668Z,23.20
2022-09-06T18:01:29.601Z,23.20
2022-09-06T18:03:57.692Z,22.99
2022-09-06T18:06:29.761Z,22.99
2022-09-06T18:08:59.625Z,23.13
2022-09-06T18:11:29.403Z,23.41
2022-09-06T18:13:58.267Z,23.28
2022-09-06T18:16:27.374Z,23.07
2022-09-06T18:18:56.014Z,22.92
2022-09-06T18:21:23.982Z,22.84
2022-09-06T18:23:52.260Z,22.88
2022-09-06T18:26:20.502Z,22.92
2022-09-06T18:28:50.655Z,22.93
2022-09-06T18:31:19.445Z,22.60
2022-09-06T18:33:47.200Z,22.55
2022-09-06T18:36:18.009Z,22.74
2022-09-06T18:38:48.652Z,22.69
2022-09-06T18:41:35.686Z,22.97
2022-09-06T18:44:33.101Z,22.90
2022-09-06T18:47:05.825Z,23.08
2022-09-06T18:49:34.476Z,23.02
2022-09-06T18:52:04.052Z,23.12
2022-09-06T18:54:41.427Z,22.92
2022-09-06T18:57:09.450Z,22.96
2022-09-06T18:59:37.544Z,23.00
2022-09-06T19:02:06.651Z,22.84
2022-09-06T19:04:36.468Z,22.93
2022-09-06T19:07:05.154Z,22.86
2022-09-06T19:09:33.310Z,22.93
2022-09-06T19:12:03.783Z,22.89
2022-09-06T19:14:33.026Z,22.89
2022-09-06T19:17:02.317Z,22.86
2022-09-06T19:19:30.112Z,22.77
2022-09-06T19:21:59.943Z,22.82
2022-09-06T19:24:27.638Z,22.74
2022-09-06T19:26:56.703Z,22.64
2022-09-06T19:29:28.838Z,22.75
2022-09-06T19:31:56.930Z,22.90
2022-09-06T19:34:26.306Z,22.70
2022-09-06T19:36:55.979Z,22.85
2022-09-06T19:39:23.456Z,22.57
2022-09-06T19:41:52.533Z,22.34
2022-09-06T19:44:20.806Z,22.13
2022-09-06T19:46:48.419Z,22.06
2022-09-06T19:49:17.505Z,22.33
2022-09-06T19:51:46.801Z,22.46
2022-09-06T19:54:16.025Z,22.42
2022-09-06T19:56:44.385Z,22.41
2022-09-06T19:59:12.919Z,22.31
2022-09-06T20:01:40.962Z,22.19
2022-09-06T20:04:11.238Z,22.32
2022-09-06T20:06:38.918Z,22.31
2022-09-06T20:09:07.355Z,22.32
2022-09-06T20:11:35.675Z,22.17
2022-09-06T20:14:03.017Z,22.33
2022-09-06T20:16:30.827Z,22.36
2022-09-06T20:18:59.131Z,22.26
2022-09-06T20:21:27.105Z,22.17
2022-09-06T20:23:55.369Z,21.94
2022-09-06T20:26:23.935Z,22.08
2022-09-06T20:28:55.661Z,21.92
2022-09-06T20:31:23.757Z,21.91
2022-09-06T20:33:51.260Z,21.87
2022-09-06T20:36:18.846Z,21.93
2022-09-06T20:38:46.930Z,21.80
2022-09-06T20:41:15.695Z,21.77
2022-09-06T20:43:43.006Z,21.82
2022-09-06T20:46:15.110Z,21.68
2022-09-06T20:48:44.836Z,21.52
2022-09-06T20:51:14.957Z,21.63
2022-09-06T20:53:42.335Z,21.51
2022-09-06T20:56:13.712Z,21.40
2022-09-06T20:58:41.587Z,21.60
2022-09-06T21:01:10.203Z,21.65
2022-09-06T21:03:39.183Z,21.63
2022-09-06T21:06:07.419Z,21.55
2022-09-06T21:08:36.650Z,21.49
2022-09-06T21:11:06.272Z,21.47
2022-09-06T21:13:34.425Z,21.62
2022-09-06T21:16:02.020Z,21.59
2022-09-06T21:18:29.877Z,21.43
2022-09-06T21:20:58.316Z,21.67
2022-09-06T21:23:26.478Z,21.36
2022-09-06T21:26:01.836Z,21.35
2022-09-06T21:28:30.299Z,21.37
2022-09-06T21:31:01.964Z,21.28
2022-09-06T21:33:30.424Z,21.22
2022-09-06T21:36:02.922Z,21.49
2022-09-06T21:38:31.151Z,21.68
2022-09-06T21:40:58.702Z,21.50
2022-09-06T21:43:26.116Z,21.61
2022-09-06T21:45:53.793Z,21.54
2022-09-06T21:48:21.125Z,21.63
2022-09-06T21:50:48.484Z,21.51
2022-09-06T21:53:16.475Z,21.70
2022-09-06T21:55:44.288Z,21.56
2022-09-06T21:58:12.250Z,21.52
2022-09-06T22:00:40.140Z,21.48
2022-09-06T22:03:08.302Z,21.63
2022-09-06T22:05:35.826Z,21.69
2022-09-06T22:08:03.294Z,21.66
2022-09-06T22:10:30.939Z,21.71
2022-09-06T22:12:58.390Z,21.57
2022-09-06T22:15:25.794Z,21.73
2022-09-06T22:17:53.408Z,21.58
2022-09-06T22:20:22.100Z,21.49
2022-09-06T22:22:49.832Z,21.52
2022-09-06T22:25:17.398Z,21.52
2022-09-06T22:27:44.889Z,21.60
2022-09-06T22:30:12.372Z,21.43
2022-09-06T22:32:40.321Z,21.47
2022-09-06T22:35:07.861Z,21.52
2022-09-06T22:37:35.301Z,21.43
2022-09-06T22:40:03.216Z,21.46
2022-09-06T22:42:30.723Z,21.49
2022-09-06T22:44:58.077Z,21.47
2022-09-06T22:47:25.740Z,21.44
2022-09-06T22:49:53.128Z,21.43
2022-09-06T22:52:20.518Z,21.45
2022-09-06T22:54:48.388Z,21.33
2022-09-06T22:57:16.004Z,21.42
2022-09-06T22:59:43.238Z,21.36
2022-09-06T23:02:10.887Z,21.35
2022-09-06T23:04:38.335Z,21.36
2022-09-06T23:07:06.048Z,21.36
2022-09-06T23:09:33.866Z,21.16
2022-09-06T23:12:01.360Z,21.19
2022-09-06T23:14:29.123Z,20.99
2022-09-06T23:16:56.981Z,21.15
2022-09-06T23:19:25.040Z,21.07
2022-09-06T23:21:52.412Z,21.16
2022-09-06T23:24:19.963Z,21.09
2022-09-06T23:26:47.324Z,20.94
2022-09-06T23:29:15.122Z,21.10
2022-09-06T23:31:42.863Z,20.90
2022-09-06T23:34:10.203Z,21.25
2022-09-06T23:36:37.530Z,20.97
2022-09-06T23:39:07.138Z,20.82
2022-09-06T23:41:34.670Z,20.89
2022-09-06T23:44:02.188Z,20.73
2022-09-06T23:46:29.897Z,20.78
2022-09-06T23:48:57.298Z,20.54
2022-09-06T23:51:25.066Z,20.74
2022-09-06T23:53:52.806Z,20.70
2022-09-06T23:56:20.991Z,20.62
2022-09-06T23:58:48.518Z,20.55
